Time;durP1;ratioP1;P1;durP2;ratioP2;P2;SDS_P1;SDS_P2;PMS_P1;PMS_P2;Temp;Humidity;BMP_temperature;BMP_pressure;BME280_temperature;BME280_humidity;BME280_pressure;Samples;Min_cycle;Max_cycle;Signal;HPM_P1;HPM_P2
2022/11/16 00:01:32;;;;;;;12.90;8.07;;;;;;;;;;5064691;28;20047;-71
2022/11/16 00:03:59;;;;;;;13.43;8.95;;;;;;;;;;5061400;28;20040;-70
2022/11/16 00:06:26;;;;;;;12.88;8.63;;;;;;;;;;5065896;28;20041;-70
2022/11/16 00:11:39;;;;;;;11.85;8.90;;;;;;;;;;5058191;28;20040;-69
2022/11/16 00:14:06;;;;;;;11.65;9.70;;;;;;;;;;5058628;28;20095;-73
2022/11/16 00:16:32;;;;;;;12.60;9.32;;;;;;;;;;5060985;28;20068;-70
2022/11/16 00:19:02;;;;;;;10.60;9.55;;;;;;;;;;5061492;28;20480;-71
2022/11/16 00:21:28;;;;;;;11.13;9.98;;;;;;;;;;5069455;28;20041;-69
2022/11/16 00:23:54;;;;;;;10.38;9.20;;;;;;;;;;5066067;28;20048;-69
2022/11/16 00:26:20;;;;;;;12.38;9.38;;;;;;;;;;5067144;28;20050;-69
2022/11/16 00:28:46;;;;;;;11.25;9.35;;;;;;;;;;5063453;28;20049;-69
2022/11/16 00:31:13;;;;;;;11.43;10.18;;;;;;;;;;5060138;28;20071;-69
2022/11/16 00:33:39;;;;;;;13.75;10.13;;;;;;;;;;5065350;28;20143;-69
2022/11/16 00:36:07;;;;;;;11.35;10.23;;;;;;;;;;5064770;28;20484;-71
2022/11/16 00:38:33;;;;;;;11.73;10.15;;;;;;;;;;5058957;28;20124;-71
2022/11/16 00:40:59;;;;;;;12.98;10.93;;;;;;;;;;5058225;28;20051;-71
2022/11/16 00:43:25;;;;;;;12.07;10.75;;;;;;;;;;5056977;28;20041;-72
2022/11/16 00:45:51;;;;;;;11.77;10.52;;;;;;;;;;5061917;28;20037;-71
2022/11/16 00:48:17;;;;;;;14.13;11.00;;;;;;;;;;5065649;28;20056;-71
2022/11/16 00:50:44;;;;;;;12.75;10.70;;;;;;;;;;5061965;28;20060;-71
2022/11/16 00:53:12;;;;;;;12.63;11.23;;;;;;;;;;5060274;28;20045;-69
2022/11/16 00:55:38;;;;;;;14.65;10.88;;;;;;;;;;5057198;28;20052;-71
2022/11/16 00:58:04;;;;;;;14.95;11.57;;;;;;;;;;5060286;28;20033;-71
2022/11/16 01:00:30;;;;;;;13.18;11.55;;;;;;;;;;5064097;28;20037;-71
2022/11/16 01:02:56;;;;;;;16.50;12.35;;;;;;;;;;5051273;28;20036;-69
2022/11/16 01:05:23;;;;;;;13.18;11.57;;;;;;;;;;5065978;28;20137;-71
2022/11/16 01:07:49;;;;;;;14.30;11.50;;;;;;;;;;5067340;28;20158;-69
2022/11/16 01:10:17;;;;;;;14.38;12.30;;;;;;;;;;5060918;28;20114;-71
2022/11/16 01:12:44;;;;;;;15.02;12.00;;;;;;;;;;5063652;28;20044;-71
2022/11/16 01:15:10;;;;;;;13.73;12.30;;;;;;;;;;5063512;28;20123;-71
2022/11/16 01:17:37;;;;;;;14.95;12.50;;;;;;;;;;5062556;28;20048;-72
2022/11/16 01:20:05;;;;;;;15.73;12.48;;;;;;;;;;5064718;28;20032;-71
2022/11/16 01:22:32;;;;;;;13.73;11.98;;;;;;;;;;5065754;28;20037;-70
2022/11/16 01:24:58;;;;;;;14.82;11.70;;;;;;;;;;5062188;28;20044;-68
2022/11/16 01:27:24;;;;;;;14.32;12.82;;;;;;;;;;5065606;28;20109;-67
2022/11/16 01:29:50;;;;;;;16.15;12.77;;;;;;;;;;5054025;28;20059;-67
2022/11/16 01:32:16;;;;;;;13.45;12.13;;;;;;;;;;5066393;28;20414;-67
2022/11/16 01:34:42;;;;;;;15.80;12.52;;;;;;;;;;5060610;28;20044;-69
2022/11/16 01:37:08;;;;;;;15.88;12.35;;;;;;;;;;5059052;28;20024;-70
2022/11/16 01:39:34;;;;;;;16.90;13.13;;;;;;;;;;5064189;28;20665;-70
2022/11/16 01:42:00;;;;;;;14.80;11.73;;;;;;;;;;5068460;28;20055;-70
2022/11/16 01:44:32;;;;;;;19.23;12.45;;;;;;;;;;5061489;28;20044;-68
2022/11/16 01:47:08;;;;;;;15.25;12.43;;;;;;;;;;5062522;28;20080;-67
2022/11/16 01:49:35;;;;;;;13.02;11.70;;;;;;;;;;5056637;28;20045;-69
2022/11/16 01:52:04;;;;;;;14.02;11.82;;;;;;;;;;5065840;28;20051;-69
2022/11/16 01:54:32;;;;;;;13.50;12.07;;;;;;;;;;5062745;28;20410;-69
2022/11/16 01:57:00;;;;;;;15.05;12.02;;;;;;;;;;5062215;28;20058;-67
2022/11/16 01:59:26;;;;;;;13.10;11.70;;;;;;;;;;5060050;28;20055;-66
2022/11/16 02:01:52;;;;;;;13.13;11.73;;;;;;;;;;5063499;28;20040;-69
2022/11/16 02:04:18;;;;;;;15.27;12.05;;;;;;;;;;5064579;28;20115;-68
2022/11/16 02:07:02;;;;;;;14.32;11.80;;;;;;;;;;5064836;28;20105;-69
2022/11/16 02:09:52;;;;;;;14.93;11.32;;;;;;;;;;5056992;28;20135;-70
2022/11/16 02:12:30;;;;;;;13.98;11.32;;;;;;;;;;5059025;28;20098;-67
2022/11/16 02:15:03;;;;;;;18.58;12.23;;;;;;;;;;5062547;28;20040;-66
2022/11/16 02:17:48;;;;;;;17.75;11.57;;;;;;;;;;5062035;28;20063;-68
2022/11/16 02:20:37;;;;;;;13.90;11.30;;;;;;;;;;5068747;28;20070;-67
2022/11/16 02:23:22;;;;;;;13.27;11.27;;;;;;;;;;5056694;28;20094;-66
2022/11/16 02:26:00;;;;;;;15.50;11.77;;;;;;;;;;5062754;28;20064;-67
2022/11/16 02:28:25;;;;;;;13.82;11.10;;;;;;;;;;5067426;28;20052;-69
2022/11/16 02:30:53;;;;;;;12.50;11.00;;;;;;;;;;5063513;28;20045;-70
2022/11/16 02:33:21;;;;;;;12.32;11.02;;;;;;;;;;5060414;28;20140;-70
2022/11/16 02:35:50;;;;;;;13.13;11.05;;;;;;;;;;5068302;28;20051;-70
2022/11/16 02:38:24;;;;;;;14.00;11.20;;;;;;;;;;5061944;28;20067;-70
2022/11/16 02:40:53;;;;;;;13.60;11.27;;;;;;;;;;5045948;28;20048;-68
2022/11/16 02:43:27;;;;;;;13.15;11.18;;;;;;;;;;5063341;28;20101;-68
2022/11/16 02:45:55;;;;;;;19.00;11.98;;;;;;;;;;5058350;28;20041;-68
2022/11/16 02:48:23;;;;;;;12.50;10.48;;;;;;;;;;5063660;28;20452;-68
2022/11/16 02:50:51;;;;;;;14.55;11.30;;;;;;;;;;5068395;28;20057;-68
2022/11/16 02:53:17;;;;;;;13.88;11.02;;;;;;;;;;5066624;28;20824;-67
2022/11/16 02:55:43;;;;;;;16.30;11.43;;;;;;;;;;5067108;28;20131;-67
2022/11/16 02:58:11;;;;;;;14.25;10.88;;;;;;;;;;5064419;28;20040;-70
2022/11/16 03:00:42;;;;;;;14.40;10.43;;;;;;;;;;5065361;28;20075;-70
2022/11/16 03:03:27;;;;;;;13.48;10.88;;;;;;;;;;5070261;28;20082;-70
2022/11/16 03:05:55;;;;;;;11.65;10.45;;;;;;;;;;5062847;28;20110;-69
2022/11/16 03:08:24;;;;;;;16.92;10.52;;;;;;;;;;5063379;28;20048;-70
2022/11/16 03:13:39;;;;;;;11.98;10.57;;;;;;;;;;5063355;28;20527;-68
2022/11/16 03:16:09;;;;;;;14.65;11.18;;;;;;;;;;5059974;28;20039;-70
2022/11/16 03:18:35;;;;;;;14.02;11.02;;;;;;;;;;5066805;28;20044;-70
2022/11/16 03:21:10;;;;;;;12.88;10.65;;;;;;;;;;5070381;28;20090;-68
2022/11/16 03:23:36;;;;;;;13.68;11.18;;;;;;;;;;5063455;28;20041;-70
2022/11/16 03:26:05;;;;;;;14.15;11.43;;;;;;;;;;5064410;28;20041;-67
2022/11/16 03:28:34;;;;;;;19.65;11.75;;;;;;;;;;5070530;28;20045;-67
2022/11/16 03:31:03;;;;;;;17.92;12.02;;;;;;;;;;5068230;28;20056;-68
2022/11/16 03:33:48;;;;;;;18.45;11.77;;;;;;;;;;5065013;28;20097;-70
2022/11/16 03:36:20;;;;;;;14.85;12.10;;;;;;;;;;5065473;28;20041;-66
2022/11/16 03:38:49;;;;;;;20.70;11.85;;;;;;;;;;5063555;28;20095;-69
2022/11/16 03:41:15;;;;;;;18.63;12.27;;;;;;;;;;5068042;28;20048;-67
2022/11/16 03:43:43;;;;;;;15.45;12.57;;;;;;;;;;5063250;28;20037;-70
2022/11/16 03:46:09;;;;;;;14.93;12.23;;;;;;;;;;5068463;28;20044;-69
2022/11/16 03:48:36;;;;;;;17.77;13.40;;;;;;;;;;5060615;28;20037;-66
2022/11/16 03:51:02;;;;;;;18.80;13.45;;;;;;;;;;5066649;28;20045;-67
2022/11/16 03:53:28;;;;;;;16.35;13.30;;;;;;;;;;5062725;28;20427;-69
2022/11/16 03:55:54;;;;;;;16.58;13.63;;;;;;;;;;5062200;28;20056;-67
2022/11/16 03:58:21;;;;;;;19.83;15.00;;;;;;;;;;5061532;28;20048;-66
2022/11/16 04:00:47;;;;;;;18.88;14.65;;;;;;;;;;5068738;28;20044;-68
2022/11/16 04:03:13;;;;;;;20.95;13.82;;;;;;;;;;5066363;28;20543;-67
2022/11/16 04:25:22;;;;;;;20.70;15.18;;;;;;;;;;5060587;28;20044;-69
2022/11/16 04:38:47;;;;;;;20.08;14.25;;;;;;;;;;5057345;28;20135;-70
2022/11/16 04:44:11;;;;;;;18.42;15.35;;;;;;;;;;5020587;28;20080;-70
2022/11/16 04:49:22;;;;;;;20.30;15.05;;;;;;;;;;5063350;28;20466;-70
2022/11/16 04:51:48;;;;;;;19.92;15.52;;;;;;;;;;5063420;28;20128;-67
2022/11/16 04:54:14;;;;;;;21.67;15.82;;;;;;;;;;5060682;28;20058;-67
2022/11/16 04:56:40;;;;;;;20.77;16.23;;;;;;;;;;5061741;28;20127;-67
2022/11/16 04:59:06;;;;;;;20.92;16.17;;;;;;;;;;5063439;28;20127;-68
2022/11/16 05:04:16;;;;;;;21.05;15.75;;;;;;;;;;5060992;28;20048;-67
2022/11/16 05:06:42;;;;;;;19.17;15.38;;;;;;;;;;5064490;28;20055;-68
2022/11/16 05:09:08;;;;;;;20.38;16.20;;;;;;;;;;5059142;28;20052;-68
2022/11/16 05:11:34;;;;;;;21.50;16.25;;;;;;;;;;5063534;28;20085;-68
2022/11/16 05:14:01;;;;;;;19.50;16.08;;;;;;;;;;5063905;28;20076;-68
2022/11/16 05:16:27;;;;;;;20.27;16.50;;;;;;;;;;5067287;28;20051;-67
2022/11/16 05:21:51;;;;;;;21.10;16.52;;;;;;;;;;5010487;28;20048;-70
2022/11/16 05:24:32;;;;;;;19.15;15.50;;;;;;;;;;5060243;28;20053;-69
2022/11/16 05:26:59;;;;;;;19.67;15.30;;;;;;;;;;5065767;28;20044;-68
2022/11/16 05:29:25;;;;;;;16.67;14.75;;;;;;;;;;5061631;28;20040;-70
2022/11/16 05:31:51;;;;;;;23.73;16.70;;;;;;;;;;5060326;28;20422;-70
2022/11/16 05:34:17;;;;;;;21.05;16.45;;;;;;;;;;5058822;28;20046;-67
2022/11/16 05:36:43;;;;;;;22.92;16.92;;;;;;;;;;5058980;28;20487;-71
2022/11/16 05:39:09;;;;;;;18.45;15.95;;;;;;;;;;5062787;28;20040;-68
2022/11/16 05:41:35;;;;;;;22.30;16.73;;;;;;;;;;5053892;28;20041;-68
2022/11/16 05:44:01;;;;;;;21.92;16.98;;;;;;;;;;5062731;28;20055;-68
2022/11/16 05:46:27;;;;;;;21.17;16.50;;;;;;;;;;5056113;28;20084;-68
2022/11/16 05:48:53;;;;;;;22.10;17.33;;;;;;;;;;5056036;28;20099;-68
2022/11/16 05:51:19;;;;;;;24.55;17.65;;;;;;;;;;5061312;28;20487;-70
2022/11/16 05:53:45;;;;;;;20.77;17.20;;;;;;;;;;5057809;28;20039;-69
2022/11/16 05:56:13;;;;;;;26.50;17.50;;;;;;;;;;5066332;28;20064;-67
2022/11/16 05:58:39;;;;;;;23.92;17.35;;;;;;;;;;5062595;28;20056;-67
2022/11/16 06:01:05;;;;;;;27.20;18.02;;;;;;;;;;5064292;28;20052;-68
2022/11/16 06:03:31;;;;;;;23.70;18.02;;;;;;;;;;5042734;28;20372;-70
2022/11/16 06:05:58;;;;;;;25.85;19.20;;;;;;;;;;5064691;28;20048;-69
2022/11/16 06:08:24;;;;;;;30.90;18.63;;;;;;;;;;5058120;28;20072;-69
2022/11/16 06:10:50;;;;;;;29.75;18.92;;;;;;;;;;5061249;28;20059;-73
2022/11/16 06:13:16;;;;;;;35.50;19.80;;;;;;;;;;5061225;28;20068;-71
2022/11/16 06:15:42;;;;;;;39.78;19.45;;;;;;;;;;5056821;28;20083;-71
2022/11/16 06:18:08;;;;;;;31.70;20.38;;;;;;;;;;5060670;28;20507;-72
2022/11/16 06:20:35;;;;;;;31.10;19.98;;;;;;;;;;5058358;28;20091;-69
2022/11/16 06:23:01;;;;;;;25.25;17.80;;;;;;;;;;5056103;28;20158;-68
2022/11/16 06:25:26;;;;;;;26.90;18.80;;;;;;;;;;5061223;28;20048;-68
2022/11/16 06:27:52;;;;;;;27.98;18.30;;;;;;;;;;5061687;28;20036;-71
2022/11/16 06:30:18;;;;;;;25.90;18.02;;;;;;;;;;5062000;28;20048;-71
2022/11/16 06:32:44;;;;;;;22.98;17.33;;;;;;;;;;5056171;28;20492;-68
2022/11/16 06:35:10;;;;;;;25.05;17.40;;;;;;;;;;5069870;28;20097;-70
2022/11/16 06:37:36;;;;;;;25.73;18.95;;;;;;;;;;5061535;28;20045;-70
2022/11/16 06:40:02;;;;;;;23.20;17.95;;;;;;;;;;5058229;28;20060;-69
2022/11/16 06:42:28;;;;;;;22.08;16.00;;;;;;;;;;5056420;28;20507;-69
2022/11/16 06:44:54;;;;;;;26.58;17.42;;;;;;;;;;5052318;28;20041;-69
2022/11/16 06:47:20;;;;;;;22.38;17.00;;;;;;;;;;5059692;28;20048;-69
2022/11/16 06:49:46;;;;;;;22.38;17.35;;;;;;;;;;5057010;28;20117;-69
2022/11/16 06:52:13;;;;;;;21.00;16.33;;;;;;;;;;5060930;28;20051;-68
2022/11/16 06:54:39;;;;;;;22.90;17.42;;;;;;;;;;5063903;28;20372;-68
2022/11/16 06:57:05;;;;;;;26.63;17.25;;;;;;;;;;5063110;28;20053;-68
2022/11/16 06:59:31;;;;;;;20.15;15.98;;;;;;;;;;5063856;28;20040;-70
2022/11/16 07:01:57;;;;;;;17.65;15.07;;;;;;;;;;5064577;28;20040;-69
2022/11/16 07:04:23;;;;;;;17.83;15.10;;;;;;;;;;5063022;28;20041;-70
2022/11/16 07:06:49;;;;;;;18.85;14.73;;;;;;;;;;5066702;28;20525;-68
2022/11/16 07:09:15;;;;;;;17.45;14.45;;;;;;;;;;5063027;28;20040;-70
2022/11/16 07:11:41;;;;;;;16.73;14.10;;;;;;;;;;5067810;28;20051;-67
2022/11/16 07:14:07;;;;;;;20.55;14.90;;;;;;;;;;5064345;28;20052;-70
2022/11/16 07:16:36;;;;;;;18.65;13.88;;;;;;;;;;5058158;28;20044;-70
2022/11/16 07:19:02;;;;;;;18.05;13.75;;;;;;;;;;5053877;28;20040;-69
2022/11/16 07:21:28;;;;;;;24.35;14.63;;;;;;;;;;5063407;28;20045;-70
2022/11/16 07:23:54;;;;;;;23.13;14.25;;;;;;;;;;5064916;28;20086;-69
2022/11/16 07:26:21;;;;;;;18.92;13.98;;;;;;;;;;5066450;28;20058;-70
2022/11/16 07:28:46;;;;;;;17.15;12.30;;;;;;;;;;5059154;28;20043;-70
2022/11/16 07:31:13;;;;;;;16.20;13.57;;;;;;;;;;5061695;28;20057;-68
2022/11/16 07:33:39;;;;;;;16.80;13.38;;;;;;;;;;5058916;28;20110;-70
2022/11/16 07:36:05;;;;;;;17.30;12.70;;;;;;;;;;5068102;28;20045;-68
2022/11/16 07:38:32;;;;;;;15.50;12.30;;;;;;;;;;5066112;28;21148;-70
2022/11/16 07:41:06;;;;;;;15.73;13.05;;;;;;;;;;5065628;28;20071;-70
2022/11/16 07:43:35;;;;;;;14.15;12.25;;;;;;;;;;5063708;28;20065;-68
2022/11/16 07:46:24;;;;;;;13.32;11.85;;;;;;;;;;5064079;28;20083;-70
2022/11/16 07:48:50;;;;;;;18.42;12.90;;;;;;;;;;5061587;28;20049;-68
2022/11/16 07:51:17;;;;;;;17.80;13.63;;;;;;;;;;5061145;28;20053;-68
2022/11/16 07:53:43;;;;;;;17.33;13.75;;;;;;;;;;5061524;28;20055;-71
2022/11/16 07:56:10;;;;;;;18.58;13.32;;;;;;;;;;5062261;28;20059;-70
2022/11/16 07:58:36;;;;;;;15.05;12.13;;;;;;;;;;5065039;28;20084;-70
2022/11/16 08:01:06;;;;;;;16.58;12.63;;;;;;;;;;5071485;28;20098;-72
2022/11/16 08:03:33;;;;;;;14.57;11.52;;;;;;;;;;5066071;28;20399;-69
2022/11/16 08:06:00;;;;;;;14.40;11.43;;;;;;;;;;5066541;28;20052;-71
2022/11/16 08:08:26;;;;;;;13.57;11.57;;;;;;;;;;5063951;28;20059;-72
2022/11/16 08:10:52;;;;;;;13.27;11.18;;;;;;;;;;5069420;28;20131;-71
2022/11/16 08:13:18;;;;;;;13.88;11.60;;;;;;;;;;5068017;28;20055;-71
2022/11/16 08:15:44;;;;;;;14.40;11.40;;;;;;;;;;5061772;28;20092;-71
2022/11/16 08:18:10;;;;;;;14.85;11.35;;;;;;;;;;5060173;28;20063;-70
2022/11/16 08:20:36;;;;;;;12.30;10.50;;;;;;;;;;5058127;28;20129;-68
2022/11/16 08:23:02;;;;;;;20.70;11.15;;;;;;;;;;5060938;28;20036;-74
2022/11/16 08:25:29;;;;;;;16.05;9.90;;;;;;;;;;5061410;28;20043;-70
2022/11/16 08:27:55;;;;;;;12.73;10.25;;;;;;;;;;5060176;28;20037;-69
2022/11/16 08:30:21;;;;;;;12.38;9.85;;;;;;;;;;5062747;28;20044;-67
2022/11/16 08:32:47;;;;;;;18.58;9.35;;;;;;;;;;5061708;28;20059;-70
2022/11/16 08:35:13;;;;;;;16.08;9.65;;;;;;;;;;5063134;28;20121;-70
2022/11/16 08:37:39;;;;;;;12.27;9.02;;;;;;;;;;5062149;28;20131;-69
2022/11/16 08:40:05;;;;;;;11.27;8.93;;;;;;;;;;5059112;28;20144;-69
2022/11/16 08:42:31;;;;;;;9.25;8.27;;;;;;;;;;5064556;28;20032;-69
2022/11/16 08:44:57;;;;;;;12.15;9.65;;;;;;;;;;5058360;28;20048;-67
2022/11/16 08:47:23;;;;;;;13.70;11.13;;;;;;;;;;5060039;28;20080;-67
2022/11/16 08:49:50;;;;;;;13.23;11.80;;;;;;;;;;5061958;28;20048;-67
2022/11/16 08:52:16;;;;;;;18.15;13.77;;;;;;;;;;5061269;28;20431;-67
2022/11/16 08:54:42;;;;;;;19.50;15.27;;;;;;;;;;5064537;28;20051;-67
2022/11/16 08:57:07;;;;;;;22.83;17.17;;;;;;;;;;5063769;28;20441;-69
2022/11/16 08:59:33;;;;;;;27.38;18.42;;;;;;;;;;5064823;28;20044;-68
2022/11/16 09:01:59;;;;;;;31.75;20.70;;;;;;;;;;5061811;28;20064;-70
2022/11/16 09:04:26;;;;;;;31.20;22.02;;;;;;;;;;5063251;28;20044;-67
2022/11/16 09:06:53;;;;;;;33.90;22.13;;;;;;;;;;5064613;28;20040;-69
2022/11/16 09:09:19;;;;;;;37.97;23.27;;;;;;;;;;5060588;28;20054;-68
2022/11/16 09:11:45;;;;;;;38.33;23.05;;;;;;;;;;5060033;28;20556;-68
2022/11/16 09:14:11;;;;;;;36.40;23.50;;;;;;;;;;5059783;28;20052;-69
2022/11/16 09:16:37;;;;;;;33.13;21.00;;;;;;;;;;5043497;28;20862;-68
2022/11/16 09:19:03;;;;;;;29.55;21.20;;;;;;;;;;5066643;28;20060;-68
2022/11/16 09:21:29;;;;;;;33.65;21.92;;;;;;;;;;5043366;28;20048;-68
2022/11/16 09:23:56;;;;;;;28.50;20.10;;;;;;;;;;5064451;28;20403;-67
2022/11/16 09:26:22;;;;;;;27.85;20.48;;;;;;;;;;5068669;28;20048;-67
2022/11/16 09:28:58;;;;;;;25.83;18.42;;;;;;;;;;5057286;28;20052;-69
2022/11/16 09:31:28;;;;;;;25.35;18.73;;;;;;;;;;5052357;28;20098;-69
2022/11/16 09:33:57;;;;;;;28.55;19.27;;;;;;;;;;5060444;28;20048;-69
2022/11/16 09:36:23;;;;;;;25.40;19.27;;;;;;;;;;5057543;28;20044;-69
2022/11/16 09:38:49;;;;;;;23.25;17.58;;;;;;;;;;5054189;28;20048;-69
2022/11/16 09:41:15;;;;;;;25.83;18.70;;;;;;;;;;5058254;28;20052;-69
2022/11/16 09:43:55;;;;;;;24.45;19.35;;;;;;;;;;5059347;28;20517;-69
2022/11/16 09:46:33;;;;;;;24.02;17.52;;;;;;;;;;5060372;28;20044;-69
2022/11/16 09:49:01;;;;;;;24.25;17.02;;;;;;;;;;5057999;28;20111;-69
2022/11/16 09:51:29;;;;;;;28.08;18.20;;;;;;;;;;5060258;28;20052;-66
2022/11/16 09:54:07;;;;;;;25.17;17.65;;;;;;;;;;5060733;28;20040;-69
2022/11/16 09:56:34;;;;;;;25.92;18.48;;;;;;;;;;5060304;28;20041;-67
2022/11/16 09:59:09;;;;;;;23.48;17.70;;;;;;;;;;5061079;28;20071;-69
2022/11/16 10:01:42;;;;;;;19.15;16.10;;;;;;;;;;5060371;28;20169;-67
2022/11/16 10:04:11;;;;;;;20.45;14.48;;;;;;;;;;5058625;28;20510;-66
2022/11/16 10:06:55;;;;;;;19.52;14.18;;;;;;;;;;5062672;28;20067;-69
2022/11/16 10:09:21;;;;;;;18.77;14.52;;;;;;;;;;5058427;28;20056;-67
2022/11/16 10:12:06;;;;;;;22.15;14.27;;;;;;;;;;5055627;28;20415;-69
2022/11/16 10:14:51;;;;;;;15.80;12.50;;;;;;;;;;5057629;28;20055;-66
2022/11/16 10:17:24;;;;;;;14.70;10.90;;;;;;;;;;5060645;28;20136;-67
2022/11/16 10:20:04;;;;;;;15.60;10.88;;;;;;;;;;5059446;28;20041;-66
2022/11/16 10:22:48;;;;;;;16.27;11.35;;;;;;;;;;5044032;28;20123;-67
2022/11/16 10:25:16;;;;;;;14.48;9.13;;;;;;;;;;5060962;28;20950;-66
2022/11/16 10:27:51;;;;;;;18.80;7.50;;;;;;;;;;5067922;28;20044;-66
2022/11/16 10:30:18;;;;;;;11.63;6.82;;;;;;;;;;5062707;28;20045;-67
2022/11/16 10:32:53;;;;;;;12.60;6.07;;;;;;;;;;5041132;28;20040;-66
2022/11/16 10:35:23;;;;;;;11.18;6.28;;;;;;;;;;5059239;28;20056;-67
2022/11/16 10:37:49;;;;;;;13.93;7.10;;;;;;;;;;5055327;28;20036;-69
2022/11/16 10:40:21;;;;;;;14.00;6.38;;;;;;;;;;5060513;28;20584;-67
2022/11/16 10:42:50;;;;;;;12.23;6.30;;;;;;;;;;5057980;28;20037;-66
2022/11/16 10:45:23;;;;;;;10.13;6.20;;;;;;;;;;5056138;28;20139;-66
2022/11/16 10:47:53;;;;;;;9.88;6.45;;;;;;;;;;5057962;28;20037;-66
2022/11/16 10:50:31;;;;;;;13.93;6.65;;;;;;;;;;5057607;28;20093;-69
2022/11/16 10:52:57;;;;;;;12.65;6.13;;;;;;;;;;5056073;28;20080;-68
2022/11/16 10:55:23;;;;;;;10.25;4.38;;;;;;;;;;5057731;28;20045;-68
2022/11/16 10:57:54;;;;;;;11.35;4.68;;;;;;;;;;5060003;28;20043;-66
2022/11/16 11:00:39;;;;;;;11.77;4.00;;;;;;;;;;5058717;28;20072;-66
2022/11/16 11:03:06;;;;;;;10.45;3.72;;;;;;;;;;5056214;28;20036;-66
2022/11/16 11:05:33;;;;;;;8.60;3.35;;;;;;;;;;5058950;28;20142;-67
2022/11/16 11:08:00;;;;;;;7.03;3.72;;;;;;;;;;5069034;28;20578;-67
2022/11/16 11:10:26;;;;;;;8.32;3.15;;;;;;;;;;5065199;28;20372;-65
2022/11/16 11:13:10;;;;;;;9.73;3.83;;;;;;;;;;5060046;28;20097;-65
2022/11/16 11:15:37;;;;;;;12.50;3.80;;;;;;;;;;5060747;28;20056;-66
2022/11/16 11:18:10;;;;;;;10.52;3.38;;;;;;;;;;5062927;28;20090;-67
2022/11/16 11:20:37;;;;;;;9.65;3.15;;;;;;;;;;5065320;28;20395;-66
2022/11/16 11:23:05;;;;;;;10.25;3.10;;;;;;;;;;5059258;28;20059;-67
2022/11/16 11:25:33;;;;;;;10.93;3.53;;;;;;;;;;5062703;28;20049;-65
2022/11/16 11:28:04;;;;;;;9.32;3.28;;;;;;;;;;5062219;28;20044;-67
2022/11/16 11:30:31;;;;;;;9.52;3.00;;;;;;;;;;5059374;28;20037;-67
2022/11/16 11:32:57;;;;;;;9.93;2.78;;;;;;;;;;5062364;28;20036;-66
2022/11/16 11:35:29;;;;;;;11.00;3.17;;;;;;;;;;5062716;28;20391;-63
2022/11/16 11:37:56;;;;;;;9.00;2.60;;;;;;;;;;5059657;28;20063;-65
2022/11/16 11:40:23;;;;;;;10.27;2.70;;;;;;;;;;5056853;28;20048;-66
2022/11/16 11:42:57;;;;;;;9.30;3.15;;;;;;;;;;5061619;28;20040;-67
2022/11/16 11:45:25;;;;;;;8.32;2.90;;;;;;;;;;5063242;28;20044;-67
2022/11/16 11:47:51;;;;;;;10.18;3.10;;;;;;;;;;5062073;28;20136;-67
2022/11/16 11:50:21;;;;;;;10.27;2.85;;;;;;;;;;5063009;28;20139;-66
2022/11/16 11:52:50;;;;;;;9.43;2.80;;;;;;;;;;5061151;28;20075;-65
2022/11/16 11:55:17;;;;;;;9.13;2.70;;;;;;;;;;5063903;28;20064;-66
2022/11/16 11:57:44;;;;;;;12.93;2.72;;;;;;;;;;5064370;28;20036;-65
2022/11/16 12:00:14;;;;;;;10.77;3.13;;;;;;;;;;5061862;28;20075;-66
2022/11/16 12:02:49;;;;;;;9.13;2.90;;;;;;;;;;5062522;28;20072;-66
2022/11/16 12:05:24;;;;;;;12.18;2.70;;;;;;;;;;5066065;28;20044;-66
2022/11/16 12:08:06;;;;;;;9.43;2.67;;;;;;;;;;5048870;28;20514;-66
2022/11/16 12:10:41;;;;;;;9.48;2.55;;;;;;;;;;5068099;28;20048;-65
2022/11/16 12:13:07;;;;;;;10.27;2.00;;;;;;;;;;5065915;28;20048;-66
2022/11/16 12:15:48;;;;;;;13.65;2.60;;;;;;;;;;5066829;28;20037;-65
2022/11/16 12:18:17;;;;;;;12.23;2.80;;;;;;;;;;5058275;28;20033;-65
2022/11/16 12:21:01;;;;;;;13.02;2.72;;;;;;;;;;5062211;28;20045;-65
2022/11/16 12:23:46;;;;;;;11.05;2.80;;;;;;;;;;5057466;28;20049;-65
2022/11/16 12:26:31;;;;;;;10.05;2.58;;;;;;;;;;5061183;28;20475;-65
2022/11/16 12:29:10;;;;;;;13.70;2.75;;;;;;;;;;5059227;28;20098;-64
2022/11/16 12:31:42;;;;;;;11.77;2.83;;;;;;;;;;5056922;28;20479;-65
2022/11/16 12:34:08;;;;;;;11.52;3.30;;;;;;;;;;5064859;28;20102;-65
2022/11/16 12:36:53;;;;;;;14.82;2.80;;;;;;;;;;5062820;28;20045;-65
2022/11/16 12:39:24;;;;;;;12.15;2.80;;;;;;;;;;5065337;28;20157;-66
2022/11/16 12:41:57;;;;;;;16.05;3.13;;;;;;;;;;5065801;28;20056;-66
2022/11/16 12:44:43;;;;;;;8.85;2.40;;;;;;;;;;5062186;28;20056;-66
2022/11/16 12:47:22;;;;;;;9.98;2.90;;;;;;;;;;5059951;28;20051;-66
2022/11/16 12:49:48;;;;;;;8.77;2.10;;;;;;;;;;5060858;28;20044;-66
2022/11/16 12:52:38;;;;;;;12.85;2.83;;;;;;;;;;5062125;28;20040;-66
2022/11/16 12:55:23;;;;;;;12.60;2.40;;;;;;;;;;5059922;28;20074;-66
2022/11/16 12:57:58;;;;;;;13.68;2.50;;;;;;;;;;5056590;28;20392;-66
2022/11/16 13:00:24;;;;;;;11.93;2.75;;;;;;;;;;5061985;28;20044;-65
2022/11/16 13:02:56;;;;;;;9.85;2.33;;;;;;;;;;5056088;28;20388;-66
2022/11/16 13:05:39;;;;;;;8.73;2.28;;;;;;;;;;5064115;28;20053;-65
2022/11/16 13:08:12;;;;;;;11.05;2.63;;;;;;;;;;5069216;28;20494;-66
2022/11/16 13:10:41;;;;;;;9.93;2.38;;;;;;;;;;5059790;28;20094;-66
2022/11/16 13:13:13;;;;;;;13.27;2.80;;;;;;;;;;5050018;28;20533;-65
2022/11/16 13:15:40;;;;;;;8.60;2.45;;;;;;;;;;5056304;28;20079;-65
2022/11/16 13:18:11;;;;;;;10.05;2.90;;;;;;;;;;5063652;28;20090;-66
2022/11/16 13:20:57;;;;;;;13.80;3.17;;;;;;;;;;5063575;28;20438;-66
2022/11/16 13:23:43;;;;;;;16.42;2.90;;;;;;;;;;5055421;28;20046;-67
2022/11/16 13:26:20;;;;;;;9.98;2.40;;;;;;;;;;5064881;28;20045;-66
2022/11/16 13:29:05;;;;;;;12.15;2.40;;;;;;;;;;5059182;28;20556;-67
2022/11/16 13:31:38;;;;;;;13.40;3.25;;;;;;;;;;5069487;28;20047;-66
2022/11/16 13:34:03;;;;;;;;;;;;;;;;;;5060141;28;20052;-66
2022/11/16 13:36:36;;;;;;;12.05;2.88;;;;;;;;;;5061512;28;19928;-66
2022/11/16 13:39:06;;;;;;;11.93;2.53;;;;;;;;;;5059806;28;20120;-67
2022/11/16 13:41:36;;;;;;;10.30;2.45;;;;;;;;;;5067613;28;20106;-67
2022/11/16 13:44:04;;;;;;;13.57;2.47;;;;;;;;;;5063234;28;20041;-68
2022/11/16 13:46:42;;;;;;;11.45;2.30;;;;;;;;;;5063072;28;20048;-67
2022/11/16 13:49:19;;;;;;;9.75;2.47;;;;;;;;;;5079002;28;20048;-67
2022/11/16 13:51:50;;;;;;;10.70;2.10;;;;;;;;;;5059911;28;20141;-67
2022/11/16 13:54:16;;;;;;;8.32;2.13;;;;;;;;;;5065923;28;20143;-67
2022/11/16 13:56:49;;;;;;;11.38;2.50;;;;;;;;;;5058943;28;20494;-66
2022/11/16 13:59:15;;;;;;;11.05;2.30;;;;;;;;;;5075098;28;20060;-68
2022/11/16 14:01:56;;;;;;;15.40;2.90;;;;;;;;;;5063760;28;20040;-68
2022/11/16 14:04:40;;;;;;;9.57;2.30;;;;;;;;;;5063708;28;20518;-68
2022/11/16 14:07:26;;;;;;;17.08;2.85;;;;;;;;;;5063874;28;20498;-67
2022/11/16 14:09:52;;;;;;;12.35;2.67;;;;;;;;;;5062715;28;20407;-66
2022/11/16 14:12:37;;;;;;;12.27;2.38;;;;;;;;;;5063825;28;20052;-67
2022/11/16 14:15:12;;;;;;;10.77;2.78;;;;;;;;;;5063687;28;20633;-66
2022/11/16 14:17:50;;;;;;;16.60;3.17;;;;;;;;;;5062313;28;20119;-67
2022/11/16 14:20:26;;;;;;;11.05;2.42;;;;;;;;;;5057755;28;20044;-67
2022/11/16 14:22:59;;;;;;;11.73;2.60;;;;;;;;;;5055777;28;20155;-67
2022/11/16 14:25:45;;;;;;;11.07;2.38;;;;;;;;;;5059523;28;20044;-67
2022/11/16 14:28:23;;;;;;;12.00;2.45;;;;;;;;;;5057607;28;20136;-66
2022/11/16 14:31:19;;;;;;;12.02;2.50;;;;;;;;;;5075974;28;20901;-67
2022/11/16 14:33:48;;;;;;;11.38;2.50;;;;;;;;;;5037758;28;20048;-65
2022/11/16 14:36:14;;;;;;;13.05;2.65;;;;;;;;;;5055553;28;20776;-66
2022/11/16 14:38:43;;;;;;;11.60;2.53;;;;;;;;;;5061721;28;20040;-66
2022/11/16 14:41:19;;;;;;;9.30;2.42;;;;;;;;;;5057994;28;20044;-66
2022/11/16 14:43:48;;;;;;;9.77;2.97;;;;;;;;;;5063617;28;20408;-65
2022/11/16 14:46:20;;;;;;;12.15;2.22;;;;;;;;;;5065778;28;20048;-65
2022/11/16 14:48:46;;;;;;;13.43;2.72;;;;;;;;;;5062809;28;20040;-67
2022/11/16 14:51:21;;;;;;;9.98;3.10;;;;;;;;;;5063732;28;20060;-66
2022/11/16 14:53:51;;;;;;;14.15;2.80;;;;;;;;;;5062541;28;20103;-66
2022/11/16 14:56:17;;;;;;;11.35;2.80;;;;;;;;;;5065100;28;20049;-67
2022/11/16 14:58:51;;;;;;;13.18;2.60;;;;;;;;;;5068358;28;20037;-66
2022/11/16 15:01:17;;;;;;;15.25;2.90;;;;;;;;;;5060270;28;20048;-67
2022/11/16 15:03:55;;;;;;;12.55;2.67;;;;;;;;;;5063906;28;20036;-67
2022/11/16 15:06:21;;;;;;;14.20;2.80;;;;;;;;;;5057476;28;20509;-67
2022/11/16 15:08:53;;;;;;;10.45;2.47;;;;;;;;;;5063287;28;20747;-67
2022/11/16 15:14:39;;;;;;;11.43;2.60;;;;;;;;;;5063022;28;20522;-68
2022/11/16 15:17:06;;;;;;;9.32;2.50;;;;;;;;;;5059218;28;20498;-65
2022/11/16 15:19:32;;;;;;;10.07;2.50;;;;;;;;;;5063327;28;20463;-68
2022/11/16 15:22:03;;;;;;;10.45;2.42;;;;;;;;;;5065056;28;20047;-66
2022/11/16 15:24:30;;;;;;;11.60;2.88;;;;;;;;;;5061482;28;21643;-68
2022/11/16 15:26:59;;;;;;;10.63;2.30;;;;;;;;;;5060068;28;20380;-68
2022/11/16 15:29:25;;;;;;;15.38;2.67;;;;;;;;;;5065590;28;20044;-68